Time;durP1;ratioP1;P1;durP2;ratioP2;P2;SDS_P1;SDS_P2;PMS_P1;PMS_P2;Temp;Humidity;BMP_temperature;BMP_pressure;BME280_temperature;BME280_humidity;BME280_pressure;Samples;Min_cycle;Max_cycle;Signal;HPM_P1;HPM_P2
2022/05/27 00:01:11;;;;;;;11.13;7.75;;;15.20;99.90;;;;;;4823902;29;20224;-87
2022/05/27 00:03:36;;;;;;;12.35;7.97;;;15.20;99.90;;;;;;4824098;29;20193;-86
2022/05/27 00:06:03;;;;;;;12.95;8.73;;;15.20;99.90;;;;;;5178072;23;20242;-85
2022/05/27 00:08:29;;;;;;;11.68;7.90;;;15.20;99.90;;;;;;4817139;29;20182;-87
2022/05/27 00:10:56;;;;;;;9.25;7.57;;;15.20;99.90;;;;;;4808947;29;20222;-88
2022/05/27 00:13:22;;;;;;;14.30;8.90;;;15.20;99.90;;;;;;4809016;29;20190;-90
2022/05/27 00:15:48;;;;;;;11.40;8.27;;;15.20;99.90;;;;;;4809242;29;20191;-89
2022/05/27 00:18:14;;;;;;;11.52;8.10;;;15.20;99.90;;;;;;4810422;29;20203;-89
2022/05/27 00:20:40;;;;;;;10.82;7.95;;;15.20;99.90;;;;;;4809207;29;20182;-89
2022/05/27 00:23:06;;;;;;;13.95;8.55;;;15.20;99.90;;;;;;4810145;29;20274;-89
2022/05/27 00:25:32;;;;;;;13.43;8.20;;;15.20;99.90;;;;;;4808752;29;20278;-89
2022/05/27 00:27:57;;;;;;;9.60;7.47;;;15.20;99.90;;;;;;4808944;29;20219;-89
2022/05/27 00:30:24;;;;;;;10.48;7.88;;;15.20;99.90;;;;;;4809125;29;20222;-88
2022/05/27 00:32:50;;;;;;;12.10;7.57;;;15.10;99.90;;;;;;4808899;29;20182;-88
2022/05/27 00:35:16;;;;;;;13.82;7.53;;;15.10;99.90;;;;;;4808964;29;20209;-88
2022/05/27 00:37:42;;;;;;;11.75;7.47;;;15.10;99.90;;;;;;4815468;29;20386;-89
2022/05/27 00:40:09;;;;;;;10.50;7.20;;;15.10;99.90;;;;;;4809779;29;20674;-87
2022/05/27 00:42:42;;;;;;;8.57;7.35;;;15.20;99.90;;;;;;4808527;29;20189;-87
2022/05/27 00:45:17;;;;;;;11.25;7.13;;;15.20;99.90;;;;;;4808397;29;20270;-88
2022/05/27 00:47:45;;;;;;;8.82;6.13;;;15.10;99.90;;;;;;4808446;29;20189;-85
2022/05/27 00:50:14;;;;;;;11.35;6.78;;;15.20;99.90;;;;;;4808660;29;20225;-87
2022/05/27 00:52:42;;;;;;;10.90;7.00;;;15.20;99.90;;;;;;4808396;29;20186;-89
2022/05/27 00:55:12;;;;;;;10.60;7.53;;;15.20;99.90;;;;;;4808224;29;20583;-86
2022/05/27 00:58:19;;;;;;;8.05;6.30;;;15.20;99.90;;;;;;4808475;29;20182;-88
2022/05/27 01:00:46;;;;;;;9.52;6.32;;;15.20;99.90;;;;;;4825837;29;20189;-88
2022/05/27 01:03:15;;;;;;;9.70;6.93;;;15.20;99.90;;;;;;4824865;29;20182;-88
2022/05/27 01:05:44;;;;;;;11.00;6.38;;;15.20;99.90;;;;;;4816460;29;20205;-87
2022/05/27 01:08:15;;;;;;;9.75;5.82;;;15.20;99.90;;;;;;4833572;29;20189;-86
2022/05/27 01:11:06;;;;;;;10.00;6.70;;;15.20;99.90;;;;;;4844346;29;20217;-87
2022/05/27 01:13:54;;;;;;;9.48;6.25;;;15.20;99.90;;;;;;4844569;29;20173;-86
2022/05/27 01:16:30;;;;;;;9.63;5.90;;;15.20;99.90;;;;;;4844534;29;20192;-86
2022/05/27 01:22:08;;;;;;;9.05;6.00;;;15.20;99.90;;;;;;4845136;29;20561;-85
2022/05/27 01:25:02;;;;;;;8.55;6.05;;;15.20;99.90;;;;;;4843758;29;20514;-87
2022/05/27 01:27:55;;;;;;;8.52;6.07;;;15.20;99.90;;;;;;4845362;29;20197;-88
2022/05/27 01:30:22;;;;;;;13.27;5.65;;;15.20;99.90;;;;;;4843953;29;20241;-87
2022/05/27 01:33:12;;;;;;;9.05;6.30;;;15.20;99.90;;;;;;4844039;29;20241;-85
2022/05/27 01:35:38;;;;;;;12.30;6.35;;;15.20;99.90;;;;;;4845134;29;20181;-87
2022/05/27 01:38:22;;;;;;;12.27;6.25;;;15.20;99.90;;;;;;4843983;29;20189;-88
2022/05/27 01:41:02;;;;;;;8.63;5.05;;;15.20;99.90;;;;;;4843638;29;20299;-88
2022/05/27 01:43:40;;;;;;;14.55;5.28;;;15.10;99.90;;;;;;4843981;29;20185;-84
2022/05/27 01:46:34;;;;;;;7.93;5.63;;;15.20;99.90;;;;;;4844912;29;20632;-86
2022/05/27 01:49:37;;;;;;;9.10;5.93;;;15.10;99.90;;;;;;4844865;29;20286;-87
2022/05/27 01:52:11;;;;;;;8.57;5.35;;;15.10;99.90;;;;;;4828246;29;20235;-89
2022/05/27 01:54:49;;;;;;;7.53;5.45;;;15.10;99.90;;;;;;4843778;29;20220;-90
2022/05/27 01:57:37;;;;;;;9.70;5.85;;;15.10;99.90;;;;;;4843604;29;20185;-90
2022/05/27 02:00:06;;;;;;;10.45;6.22;;;15.20;99.90;;;;;;4843339;29;20283;-87
2022/05/27 02:02:34;;;;;;;8.10;5.20;;;15.20;99.90;;;;;;4844842;29;20513;-85
2022/05/27 02:05:13;;;;;;;12.32;5.88;;;15.20;99.90;;;;;;4844717;29;20177;-87
2022/05/27 02:08:04;;;;;;;14.07;5.85;;;15.10;99.90;;;;;;4844385;29;20692;-85
2022/05/27 02:10:46;;;;;;;9.18;5.30;;;15.10;99.90;;;;;;4840726;29;20704;-86
2022/05/27 02:13:38;;;;;;;11.43;5.72;;;15.10;99.90;;;;;;4843355;29;20189;-86
2022/05/27 02:16:07;;;;;;;7.45;6.03;;;15.00;99.90;;;;;;4843377;29;20189;-85
2022/05/27 02:18:49;;;;;;;8.75;6.22;;;15.00;99.90;;;;;;4844322;29;20260;-85
2022/05/27 02:21:45;;;;;;;9.35;5.85;;;15.00;99.90;;;;;;4843179;29;20252;-84
2022/05/27 02:24:20;;;;;;;9.52;5.22;;;15.00;99.90;;;;;;4837984;29;20193;-85
2022/05/27 02:26:56;;;;;;;10.13;5.93;;;15.00;99.90;;;;;;4842820;29;20634;-85
2022/05/27 02:29:28;;;;;;;7.25;5.82;;;15.00;99.90;;;;;;4806920;29;20174;-85
2022/05/27 02:31:59;;;;;;;8.23;5.07;;;15.00;99.90;;;;;;4807998;29;20194;-85
2022/05/27 02:37:30;;;;;;;6.60;4.88;;;14.90;99.90;;;;;;4820056;29;20192;-85
2022/05/27 02:39:59;;;;;;;6.43;4.65;;;14.90;99.90;;;;;;4842791;29;20205;-84
2022/05/27 02:42:51;;;;;;;11.65;5.20;;;14.90;99.90;;;;;;4842983;29;20629;-83
2022/05/27 02:45:39;;;;;;;6.75;4.50;;;14.90;99.90;;;;;;4842761;29;20188;-85
2022/05/27 02:48:18;;;;;;;5.47;4.15;;;14.90;99.90;;;;;;4830175;29;20277;-84
2022/05/27 02:50:59;;;;;;;6.60;3.97;;;14.90;99.90;;;;;;4806536;29;20270;-85
2022/05/27 02:53:24;;;;;;;7.20;3.67;;;14.90;99.90;;;;;;4806639;29;20186;-86
2022/05/27 02:55:59;;;;;;;6.53;1.48;;;14.80;99.90;;;;;;4807443;29;20179;-86
2022/05/27 02:58:25;;;;;;;7.70;1.42;;;14.50;99.90;;;;;;4808170;29;20652;-85
2022/05/27 03:00:51;;;;;;;3.47;1.02;;;14.10;99.90;;;;;;4806498;29;20282;-85
2022/05/27 03:03:17;;;;;;;6.20;1.40;;;13.70;99.90;;;;;;4806657;29;20522;-85
2022/05/27 03:06:08;;;;;;;2.42;1.23;;;13.50;99.90;;;;;;4806040;29;20221;-83
2022/05/27 03:08:38;;;;;;;6.20;1.08;;;13.40;99.90;;;;;;4838559;29;20220;-84
2022/05/27 03:11:13;;;;;;;4.90;1.23;;;13.30;99.90;;;;;;4843518;29;20240;-83
2022/05/27 03:14:08;;;;;;;5.18;1.20;;;13.20;99.90;;;;;;4843783;29;20256;-83
2022/05/27 03:16:58;;;;;;;3.45;0.88;;;13.20;99.90;;;;;;4842377;29;20185;-83
2022/05/27 03:19:34;;;;;;;3.72;1.10;;;13.20;99.90;;;;;;4843607;29;20173;-83
2022/05/27 03:22:15;;;;;;;6.03;1.20;;;13.20;99.90;;;;;;4842361;29;20188;-83
2022/05/27 03:24:59;;;;;;;1.65;0.98;;;13.20;99.90;;;;;;4842274;29;20263;-83
2022/05/27 03:27:39;;;;;;;3.95;1.52;;;13.20;99.90;;;;;;4846950;29;20185;-83
2022/05/27 03:30:07;;;;;;;3.45;1.55;;;13.20;99.90;;;;;;4845725;29;20231;-83
2022/05/27 03:32:48;;;;;;;3.15;1.08;;;13.20;99.90;;;;;;4845896;29;20284;-83
2022/05/27 03:35:37;;;;;;;3.13;1.15;;;13.20;99.90;;;;;;4847035;29;20579;-86
2022/05/27 03:38:08;;;;;;;4.93;1.20;;;13.30;99.90;;;;;;4845175;29;20653;-83
2022/05/27 03:40:58;;;;;;;4.75;1.08;;;13.30;99.90;;;;;;4845781;29;20193;-84
2022/05/27 03:43:24;;;;;;;1.30;0.88;;;13.30;99.90;;;;;;4845911;29;20181;-83
2022/05/27 03:45:53;;;;;;;2.95;1.13;;;13.30;99.90;;;;;;4845472;29;20573;-83
2022/05/27 03:48:20;;;;;;;2.25;1.10;;;13.30;99.90;;;;;;4811823;29;20186;-83
2022/05/27 03:50:48;;;;;;;3.72;1.13;;;13.30;99.90;;;;;;4808977;29;20222;-83
2022/05/27 03:53:14;;;;;;;3.13;1.00;;;13.30;99.90;;;;;;4808964;29;20622;-82
2022/05/27 03:55:44;;;;;;;2.28;1.20;;;13.20;99.90;;;;;;4809761;29;20187;-83
2022/05/27 03:58:14;;;;;;;2.60;1.02;;;13.30;99.90;;;;;;4810297;29;20511;-82
2022/05/27 04:00:41;;;;;;;2.88;1.35;;;13.30;99.90;;;;;;4810032;29;20171;-83
2022/05/27 04:03:08;;;;;;;1.83;1.05;;;13.30;99.90;;;;;;4809034;29;20243;-85
2022/05/27 04:05:34;;;;;;;2.65;1.10;;;13.40;99.90;;;;;;4809924;29;20272;-84
2022/05/27 04:08:00;;;;;;;1.15;0.93;;;13.40;99.90;;;;;;4831449;29;20279;-84
2022/05/27 04:10:25;;;;;;;2.33;1.30;;;13.50;99.90;;;;;;4838387;29;20216;-85
2022/05/27 04:12:51;;;;;;;2.45;1.17;;;13.50;99.90;;;;;;4845293;29;20705;-84
2022/05/27 04:15:17;;;;;;;2.67;1.02;;;13.50;99.90;;;;;;4845088;29;20617;-85
2022/05/27 04:17:43;;;;;;;1.85;1.20;;;13.50;99.90;;;;;;4845461;29;20541;-84
2022/05/27 04:20:12;;;;;;;2.10;1.05;;;13.50;99.90;;;;;;4834638;29;20189;-82
2022/05/27 04:22:39;;;;;;;1.30;1.08;;;13.50;99.90;;;;;;4828074;29;20198;-85
2022/05/27 04:25:05;;;;;;;1.88;1.23;;;13.60;99.90;;;;;;4826420;29;20190;-82
2022/05/27 04:27:32;;;;;;;2.42;1.15;;;13.60;99.90;;;;;;4826327;29;20190;-84
2022/05/27 04:29:57;;;;;;;2.13;1.30;;;13.60;99.90;;;;;;4826324;29;20620;-86
2022/05/27 04:32:25;;;;;;;5.00;1.10;;;13.60;99.90;;;;;;4826661;29;20289;-86
2022/05/27 04:34:52;;;;;;;3.47;1.10;;;13.70;99.90;;;;;;4827792;29;20182;-84
2022/05/27 04:37:18;;;;;;;2.78;1.10;;;13.70;99.90;;;;;;4827867;29;20587;-85
2022/05/27 04:39:43;;;;;;;2.88;1.30;;;13.70;99.90;;;;;;4827394;29;20209;-84
2022/05/27 04:42:10;;;;;;;2.05;1.30;;;13.70;99.90;;;;;;4844789;29;20219;-85
2022/05/27 04:44:36;;;;;;;3.80;1.23;;;13.70;99.90;;;;;;4845954;29;20230;-85
2022/05/27 04:47:02;;;;;;;2.05;1.15;;;13.80;99.90;;;;;;4845010;29;20185;-86
2022/05/27 04:52:13;;;;;;;5.03;1.30;;;13.80;99.90;;;;;;4846137;29;20276;-83
2022/05/27 04:54:39;;;;;;;2.72;1.42;;;13.90;99.90;;;;;;4811532;29;20642;-83
2022/05/27 04:57:05;;;;;;;3.63;1.42;;;13.90;99.90;;;;;;4808901;29;20178;-83
2022/05/27 04:59:35;;;;;;;4.55;1.60;;;14.00;99.90;;;;;;4809207;29;20242;-82
2022/05/27 05:02:05;;;;;;;5.03;1.80;;;14.00;99.90;;;;;;4807759;29;20193;-84
2022/05/27 05:04:31;;;;;;;5.47;2.00;;;14.00;99.90;;;;;;4807772;29;20242;-83
2022/05/27 05:07:08;;;;;;;2.72;1.60;;;14.00;99.90;;;;;;4807469;29;20242;-82
2022/05/27 05:09:35;;;;;;;4.13;1.40;;;13.90;99.90;;;;;;4807703;29;20187;-83
2022/05/27 05:12:01;;;;;;;3.08;1.65;;;14.00;99.90;;;;;;4822878;29;20233;-83
2022/05/27 05:14:27;;;;;;;5.78;1.85;;;13.90;99.90;;;;;;4807494;29;20228;-83
2022/05/27 05:16:52;;;;;;;12.00;1.73;;;13.90;99.90;;;;;;4807618;29;20191;-83
2022/05/27 05:19:18;;;;;;;2.88;1.77;;;14.00;99.90;;;;;;4807572;29;20179;-84
2022/05/27 05:21:44;;;;;;;4.88;2.53;;;14.00;99.90;;;;;;4807418;29;20197;-83
2022/05/27 05:24:09;;;;;;;3.95;1.80;;;14.00;99.90;;;;;;4808492;29;20175;-83
2022/05/27 05:26:35;;;;;;;3.63;1.73;;;14.00;99.90;;;;;;4807182;29;20182;-84
2022/05/27 05:29:01;;;;;;;4.57;2.00;;;14.00;99.90;;;;;;4808816;29;20202;-84
2022/05/27 05:31:27;;;;;;;4.43;1.88;;;14.10;99.90;;;;;;4807617;29;20409;-85
2022/05/27 05:33:58;;;;;;;6.38;2.22;;;14.10;99.90;;;;;;4808697;29;20203;-84
2022/05/27 05:36:24;;;;;;;3.08;1.80;;;14.20;99.90;;;;;;4807765;29;20355;-85
2022/05/27 05:38:50;;;;;;;5.03;2.03;;;14.20;99.90;;;;;;4808683;29;20186;-86
2022/05/27 05:41:27;;;;;;;4.72;1.92;;;14.30;99.90;;;;;;4832752;29;20230;-84
2022/05/27 05:43:54;;;;;;;4.93;2.08;;;14.30;99.90;;;;;;4830416;29;20189;-85
2022/05/27 05:46:20;;;;;;;4.20;1.77;;;14.40;99.90;;;;;;4822026;29;20187;-84
2022/05/27 05:48:46;;;;;;;5.03;2.40;;;14.50;99.90;;;;;;4807855;29;20179;-85
2022/05/27 05:51:11;;;;;;;3.72;1.70;;;14.50;99.90;;;;;;4807212;29;20275;-86
2022/05/27 05:53:37;;;;;;;4.18;2.00;;;14.50;99.90;;;;;;4808481;29;20171;-85
2022/05/27 05:56:03;;;;;;;3.95;1.63;;;14.50;99.90;;;;;;4807045;29;20269;-85
2022/05/27 05:58:28;;;;;;;5.35;2.00;;;14.50;99.90;;;;;;4807105;29;20682;-84
2022/05/27 06:00:54;;;;;;;6.82;1.95;;;14.50;99.90;;;;;;4807243;29;20229;-86
2022/05/27 06:03:20;;;;;;;8.30;2.13;;;14.50;99.90;;;;;;4807057;29;20190;-86
2022/05/27 06:05:47;;;;;;;7.72;2.33;;;14.60;99.90;;;;;;4806766;29;20198;-85
2022/05/27 06:08:15;;;;;;;4.72;2.22;;;14.50;99.90;;;;;;4808030;29;20170;-84
2022/05/27 06:10:41;;;;;;;6.20;1.70;;;14.60;99.90;;;;;;4824645;29;20213;-85
2022/05/27 06:13:07;;;;;;;4.55;2.17;;;14.60;99.90;;;;;;4843403;29;20181;-85
2022/05/27 06:15:33;;;;;;;6.65;1.98;;;14.70;99.90;;;;;;4842997;29;20641;-84
2022/05/27 06:18:04;;;;;;;4.75;1.63;;;14.70;99.90;;;;;;4843117;29;20196;-85
2022/05/27 06:20:29;;;;;;;5.18;1.70;;;14.80;99.90;;;;;;4843371;29;20267;-85
2022/05/27 06:22:55;;;;;;;7.07;1.58;;;14.90;99.90;;;;;;4843332;29;20230;-85
2022/05/27 06:25:21;;;;;;;4.03;1.52;;;14.90;99.90;;;;;;4842820;29;20216;-86
2022/05/27 06:27:47;;;;;;;8.63;1.80;;;14.80;99.90;;;;;;4843355;29;20184;-87
2022/05/27 06:35:42;;;;;;;6.85;1.75;;;14.80;99.90;;;;;;4844415;29;20176;-85
2022/05/27 06:38:09;;;;;;;4.43;1.40;;;14.90;99.90;;;;;;4843286;29;20185;-85
2022/05/27 06:40:34;;;;;;;6.78;1.35;;;14.90;99.90;;;;;;4843751;29;20530;-85
2022/05/27 06:43:00;;;;;;;6.32;1.17;;;14.80;99.90;;;;;;4843057;29;20181;-86
2022/05/27 06:45:26;;;;;;;7.00;1.60;;;14.80;99.90;;;;;;4844198;29;20597;-86
2022/05/27 06:47:52;;;;;;;8.10;1.70;;;14.90;99.90;;;;;;4842954;29;20212;-85
2022/05/27 06:50:18;;;;;;;6.40;1.58;;;14.90;99.90;;;;;;4842898;29;20741;-87
2022/05/27 06:52:43;;;;;;;11.32;1.92;;;15.00;99.90;;;;;;4843040;29;20213;-88
2022/05/27 06:55:12;;;;;;;3.67;1.20;;;15.00;99.90;;;;;;4842886;29;20224;-87
2022/05/27 06:57:38;;;;;;;8.30;1.52;;;15.20;99.90;;;;;;4842747;29;20189;-87
2022/05/27 07:00:06;;;;;;;9.25;1.58;;;15.30;99.90;;;;;;4842990;29;20189;-88
2022/05/27 07:02:32;;;;;;;8.93;1.60;;;15.40;99.90;;;;;;4846702;29;20637;-87
2022/05/27 07:04:58;;;;;;;5.13;1.77;;;15.50;99.90;;;;;;4847721;29;20177;-88
2022/05/27 07:07:28;;;;;;;8.75;1.58;;;15.60;99.90;;;;;;4846554;29;20680;-88
2022/05/27 07:09:55;;;;;;;10.43;1.92;;;15.50;99.90;;;;;;4846595;29;20268;-88
2022/05/27 07:12:20;;;;;;;5.32;1.80;;;15.50;99.90;;;;;;4846303;29;20281;-87
2022/05/27 07:14:46;;;;;;;6.05;1.58;;;15.60;99.90;;;;;;4846405;29;20594;-84
2022/05/27 07:17:12;;;;;;;7.25;1.48;;;15.70;99.90;;;;;;4846691;29;20188;-87
2022/05/27 07:19:38;;;;;;;7.75;1.73;;;15.70;99.90;;;;;;4846679;29;20209;-86
2022/05/27 07:22:09;;;;;;;4.43;1.35;;;15.70;99.90;;;;;;4846687;29;20648;-86
2022/05/27 07:24:36;;;;;;;8.55;1.65;;;15.70;99.90;;;;;;4846298;29;20188;-86
2022/05/27 07:27:02;;;;;;;5.97;1.50;;;15.80;99.90;;;;;;4846133;29;20246;-85
2022/05/27 07:29:28;;;;;;;7.65;1.55;;;15.80;99.90;;;;;;4847292;29;20515;-87
2022/05/27 07:31:54;;;;;;;6.57;1.50;;;15.80;99.90;;;;;;4846283;29;20232;-85
2022/05/27 07:34:20;;;;;;;8.73;2.00;;;16.00;99.90;;;;;;4846373;29;20189;-86
2022/05/27 07:36:46;;;;;;;9.63;1.60;;;16.20;99.90;;;;;;4847354;29;20517;-86
2022/05/27 07:39:11;;;;;;;6.80;1.70;;;16.40;99.90;;;;;;4846045;29;20182;-87
2022/05/27 07:41:37;;;;;;;7.43;1.67;;;16.30;99.90;;;;;;4845871;29;20185;-85
2022/05/27 07:44:04;;;;;;;8.55;1.50;;;16.30;99.90;;;;;;4846107;29;20589;-87
2022/05/27 07:46:32;;;;;;;6.10;1.60;;;16.10;99.90;;;;;;4845934;29;20244;-87
2022/05/27 07:48:59;;;;;;;7.45;1.88;;;16.00;99.90;;;;;;4845898;29;20628;-88
2022/05/27 07:51:25;;;;;;;7.65;1.55;;;15.90;99.90;;;;;;4845950;29;20236;-86
2022/05/27 07:53:50;;;;;;;5.22;1.40;;;15.80;99.90;;;;;;4845815;29;20181;-87
2022/05/27 07:56:16;;;;;;;9.18;1.73;;;15.70;99.90;;;;;;4845343;29;20193;-89
2022/05/27 07:58:42;;;;;;;11.27;1.95;;;15.60;99.90;;;;;;4845712;29;20192;-85
2022/05/27 08:01:08;;;;;;;10.43;1.58;;;15.60;99.90;;;;;;4845808;29;20527;-87
2022/05/27 08:03:34;;;;;;;8.20;1.55;;;15.60;99.90;;;;;;4845626;29;20201;-86
2022/05/27 08:06:00;;;;;;;4.25;1.70;;;15.60;99.90;;;;;;4845598;29;20308;-89
2022/05/27 08:08:29;;;;;;;7.15;1.40;;;15.90;99.90;;;;;;4845633;29;20559;-86
2022/05/27 08:10:56;;;;;;;4.32;1.40;;;16.10;99.90;;;;;;4844937;29;20287;-86
2022/05/27 08:13:22;;;;;;;7.18;1.80;;;16.20;99.90;;;;;;4845515;29;20189;-87
2022/05/27 08:15:48;;;;;;;6.32;1.88;;;16.20;99.90;;;;;;4845448;29;20188;-86
2022/05/27 08:18:13;;;;;;;5.65;1.70;;;16.00;99.90;;;;;;4846581;29;20185;-88
2022/05/27 08:20:39;;;;;;;9.98;1.75;;;16.10;99.90;;;;;;4845327;29;20230;-86
2022/05/27 08:23:06;;;;;;;8.50;1.92;;;16.30;99.90;;;;;;4845285;29;20218;-84
2022/05/27 08:25:32;;;;;;;9.85;1.48;;;16.40;99.90;;;;;;4845025;29;20254;-88
2022/05/27 08:27:58;;;;;;;6.88;1.65;;;16.70;99.90;;;;;;4846441;29;20197;-86
2022/05/27 08:30:30;;;;;;;6.22;1.60;;;16.90;99.90;;;;;;4845060;29;20297;-87
2022/05/27 08:32:57;;;;;;;4.35;1.45;;;16.80;99.90;;;;;;4845242;29;20178;-89
2022/05/27 08:38:13;;;;;;;6.03;1.58;;;16.80;99.90;;;;;;4846535;29;20180;-84
2022/05/27 08:40:56;;;;;;;8.07;1.40;;;16.50;99.90;;;;;;4845842;29;20185;-86
2022/05/27 08:43:41;;;;;;;7.03;1.48;;;16.30;99.90;;;;;;4845042;29;20247;-85
2022/05/27 08:46:23;;;;;;;3.30;1.15;;;16.20;99.90;;;;;;4844868;29;20218;-86
2022/05/27 08:48:55;;;;;;;5.25;1.45;;;16.30;99.90;;;;;;4846055;29;20174;-85
2022/05/27 08:51:43;;;;;;;4.07;1.30;;;16.20;99.90;;;;;;4844857;29;20262;-84
2022/05/27 08:54:15;;;;;;;8.20;1.85;;;16.00;99.90;;;;;;4840602;29;20193;-85
2022/05/27 08:59:52;;;;;;;5.85;1.65;;;15.70;99.90;;;;;;4845674;29;20198;-83
2022/05/27 09:02:56;;;;;;;8.15;1.63;;;15.70;99.90;;;;;;4845455;29;20177;-85
2022/05/27 09:05:30;;;;;;;6.03;1.20;;;16.00;99.90;;;;;;4844045;29;20575;-84
2022/05/27 09:08:08;;;;;;;3.65;1.48;;;16.50;99.90;;;;;;4844089;29;20668;-84
2022/05/27 09:10:59;;;;;;;6.72;1.70;;;17.00;99.90;;;;;;4845231;29;20343;-84
2022/05/27 09:13:34;;;;;;;3.72;1.13;;;17.20;99.90;;;;;;4844056;29;20185;-86
2022/05/27 09:16:32;;;;;;;11.88;1.98;;;17.00;99.90;;;;;;4844080;29;20235;-84
2022/05/27 09:19:12;;;;;;;7.50;1.60;;;17.00;99.90;;;;;;4845007;29;20256;-86
2022/05/27 09:22:08;;;;;;;7.28;1.60;;;16.90;99.90;;;;;;4843983;29;20173;-85
2022/05/27 09:25:04;;;;;;;4.88;1.35;;;16.70;99.90;;;;;;4844212;29;20176;-83
2022/05/27 09:27:40;;;;;;;7.90;1.67;;;16.80;99.90;;;;;;4843668;29;20180;-83
2022/05/27 09:30:11;;;;;;;5.45;1.60;;;17.20;99.90;;;;;;4843900;29;20651;-84
2022/05/27 09:33:09;;;;;;;7.35;1.77;;;17.60;99.90;;;;;;4843929;29;20173;-84
2022/05/27 09:35:48;;;;;;;7.95;1.67;;;18.00;99.90;;;;;;4844129;29;20567;-84
2022/05/27 09:38:30;;;;;;;9.20;1.52;;;18.30;99.90;;;;;;4845165;29;20201;-84
2022/05/27 09:40:58;;;;;;;5.47;1.45;;;18.50;99.50;;;;;;4844620;29;20264;-84
2022/05/27 09:43:44;;;;;;;9.30;1.80;;;18.20;99.90;;;;;;4843642;29;20218;-84
2022/05/27 09:46:16;;;;;;;5.57;1.25;;;18.00;99.90;;;;;;4843387;29;20237;-84
2022/05/27 09:48:44;;;;;;;4.22;1.40;;;17.80;98.90;;;;;;4843187;29;20637;-84
2022/05/27 09:51:12;;;;;;;9.60;2.58;;;17.80;99.70;;;;;;4843359;29;20660;-83
2022/05/27 09:53:41;;;;;;;9.45;1.52;;;18.00;99.90;;;;;;4842988;29;20220;-86
2022/05/27 09:56:13;;;;;;;8.15;1.88;;;18.10;99.90;;;;;;4843082;29;20268;-83
2022/05/27 09:58:42;;;;;;;6.45;1.35;;;18.30;99.90;;;;;;4843162;29;20177;-84
2022/05/27 10:01:28;;;;;;;4.75;1.42;;;18.60;99.70;;;;;;4843167;29;20272;-84
2022/05/27 10:04:06;;;;;;;8.50;1.27;;;18.70;94.10;;;;;;4844252;29;20173;-85
2022/05/27 10:06:34;;;;;;;7.70;2.10;;;18.70;98.30;;;;;;4843047;29;20296;-83
2022/05/27 10:09:05;;;;;;;7.65;1.60;;;18.60;93.90;;;;;;4844378;29;20181;-84
2022/05/27 10:11:32;;;;;;;5.70;1.33;;;18.60;97.20;;;;;;4843899;29;20228;-81
2022/05/27 10:14:23;;;;;;;7.03;1.77;;;18.70;95.00;;;;;;4843006;29;20181;-83
2022/05/27 10:17:12;;;;;;;4.60;1.65;;;18.80;93.70;;;;;;4842986;29;20189;-83
2022/05/27 10:19:39;;;;;;;6.45;1.42;;;18.80;94.20;;;;;;4844125;29;20162;-82
2022/05/27 10:22:25;;;;;;;2.97;1.25;;;18.60;94.20;;;;;;4842892;29;20185;-83
2022/05/27 10:25:11;;;;;;;5.65;1.45;;;18.90;95.90;;;;;;4842694;29;20178;-84
2022/05/27 10:27:50;;;;;;;5.25;1.27;;;19.20;93.60;;;;;;4842600;29;20185;-83
2022/05/27 10:30:24;;;;;;;8.35;1.80;;;19.00;93.30;;;;;;4842601;29;20197;-81
2022/05/27 10:32:50;;;;;;;6.20;1.55;;;19.10;94.70;;;;;;4843751;29;20178;-82
2022/05/27 10:35:16;;;;;;;4.95;1.40;;;18.80;93.80;;;;;;4844029;29;20173;-82
2022/05/27 10:37:54;;;;;;;9.27;1.50;;;18.60;95.60;;;;;;4842694;29;20188;-81
2022/05/27 10:40:31;;;;;;;4.50;1.33;;;18.60;95.00;;;;;;4843673;29;20188;-83
2022/05/27 10:43:34;;;;;;;7.28;1.70;;;18.90;96.50;;;;;;4841144;29;20642;-82
2022/05/27 10:46:04;;;;;;;9.80;1.30;;;19.30;95.30;;;;;;4807368;29;20175;-83
2022/05/27 10:49:20;;;;;;;8.00;1.30;;;19.70;91.70;;;;;;4824178;29;20178;-82
2022/05/27 10:52:02;;;;;;;6.07;1.65;;;19.60;92.90;;;;;;4816750;29;20332;-83
2022/05/27 10:54:36;;;;;;;5.78;1.60;;;19.50;92.20;;;;;;4825402;29;20184;-82
2022/05/27 11:04:32;;;;;;;6.80;1.42;;;18.90;92.20;;;;;;4840228;29;20172;-80
2022/05/27 11:07:19;;;;;;;5.15;1.50;;;18.30;91.60;;;;;;4825084;29;20294;-83
2022/05/27 11:10:05;;;;;;;5.45;1.48;;;17.90;92.80;;;;;;4826619;29;20182;-81
2022/05/27 11:16:04;;;;;;;4.65;1.27;;;17.70;93.50;;;;;;4843307;29;20181;-83
2022/05/27 11:19:08;;;;;;;5.20;1.48;;;17.70;91.80;;;;;;4843480;29;20180;-82
2022/05/27 11:22:02;;;;;;;7.07;1.45;;;17.60;94.30;;;;;;4836497;29;20197;-81
2022/05/27 11:24:45;;;;;;;6.53;1.30;;;17.30;92.90;;;;;;4841959;29;20181;-80
2022/05/27 11:27:45;;;;;;;7.78;1.40;;;17.60;95.70;;;;;;4842935;29;20272;-81
2022/05/27 11:30:19;;;;;;;10.13;1.70;;;18.20;94.10;;;;;;4842014;29;20701;-81
2022/05/27 11:33:12;;;;;;;6.38;1.60;;;18.70;95.90;;;;;;4843263;29;20213;-80
2022/05/27 11:35:56;;;;;;;8.90;1.63;;;19.10;93.00;;;;;;4842179;29;20185;-81
2022/05/27 11:38:27;;;;;;;5.05;1.17;;;19.00;91.50;;;;;;4843217;29;20170;-82
2022/05/27 11:41:07;;;;;;;2.95;1.30;;;18.40;89.70;;;;;;4841831;29;20283;-81
2022/05/27 11:43:48;;;;;;;9.15;1.20;;;18.20;92.10;;;;;;4843195;29;20598;-81
2022/05/27 11:46:40;;;;;;;6.18;1.40;;;18.10;92.10;;;;;;4842283;29;20261;-81
2022/05/27 11:49:27;;;;;;;7.65;1.90;;;18.00;93.60;;;;;;4845428;29;20621;-82
2022/05/27 11:52:11;;;;;;;5.28;1.50;;;17.70;91.60;;;;;;4846537;29;20299;-81
2022/05/27 11:54:42;;;;;;;5.40;1.65;;;17.60;93.20;;;;;;4846220;29;20197;-80
2022/05/27 11:57:26;;;;;;;6.20;1.60;;;17.90;93.10;;;;;;4844919;29;20246;-80
2022/05/27 12:00:01;;;;;;;3.20;1.40;;;18.30;93.50;;;;;;4846292;29;20169;-81
2022/05/27 12:02:30;;;;;;;5.63;1.52;;;18.50;93.20;;;;;;4845031;29;20616;-81
2022/05/27 12:05:04;;;;;;;7.07;1.48;;;18.40;93.00;;;;;;4843631;29;20185;-81
2022/05/27 12:07:39;;;;;;;4.00;1.60;;;18.20;90.90;;;;;;4826463;29;20323;-80
2022/05/27 12:10:05;;;;;;;7.97;1.50;;;17.90;92.60;;;;;;4830227;29;20291;-81
2022/05/27 12:12:34;;;;;;;5.88;1.35;;;18.10;91.50;;;;;;4845869;29;20267;-81
2022/05/27 12:15:10;;;;;;;5.32;1.58;;;18.40;92.70;;;;;;4844763;29;20208;-81
2022/05/27 12:17:41;;;;;;;2.75;1.40;;;18.80;94.80;;;;;;4846103;29;20218;-83
2022/05/27 12:20:09;;;;;;;5.13;1.52;;;19.10;90.00;;;;;;4845015;29;20204;-81
2022/05/27 12:22:35;;;;;;;7.80;1.50;;;18.80;90.70;;;;;;4845861;29;20526;-80
2022/05/27 12:25:19;;;;;;;7.03;1.50;;;18.50;90.20;;;;;;4844561;29;20188;-82
2022/05/27 12:27:46;;;;;;;7.45;2.30;;;18.00;89.90;;;;;;4845575;29;20253;-81
2022/05/27 12:30:15;;;;;;;7.05;1.63;;;17.50;90.50;;;;;;4844312;29;20237;-81
2022/05/27 12:32:44;;;;;;;5.47;1.42;;;17.60;91.90;;;;;;4845559;29;20177;-82
2022/05/27 12:35:34;;;;;;;5.35;1.38;;;18.00;90.90;;;;;;4845375;29;20182;-80
2022/05/27 12:38:05;;;;;;;5.38;1.38;;;18.40;90.00;;;;;;4845591;29;20180;-80
2022/05/27 12:40:38;;;;;;;11.50;1.60;;;18.20;90.00;;;;;;4836040;29;20231;-81
2022/05/27 12:43:24;;;;;;;6.30;1.50;;;17.80;88.90;;;;;;4845311;29;20169;-80
2022/05/27 12:45:55;;;;;;;7.90;1.48;;;17.60;89.40;;;;;;4843964;29;20189;-81
2022/05/27 12:48:27;;;;;;;5.85;1.10;;;17.90;91.60;;;;;;4844165;29;20185;-80
2022/05/27 12:50:58;;;;;;;7.43;1.80;;;18.20;91.00;;;;;;4844227;29;20687;-81
2022/05/27 12:53:49;;;;;;;9.65;1.40;;;18.60;92.00;;;;;;4845513;29;20181;-80
2022/05/27 13:02:30;;;;;;;8.07;1.35;;;19.50;90.20;;;;;;4825778;29;20220;-80
2022/05/27 13:04:59;;;;;;;4.38;1.30;;;19.50;86.90;;;;;;4826479;29;20198;-80
2022/05/27 13:07:27;;;;;;;5.45;1.23;;;19.50;86.10;;;;;;4825725;29;20328;-81
2022/05/27 13:09:54;;;;;;;7.60;1.35;;;19.40;89.30;;;;;;4827844;29;20541;-82
2022/05/27 13:12:52;;;;;;;6.82;1.23;;;19.40;83.80;;;;;;4840538;29;20676;-81
2022/05/27 13:15:22;;;;;;;2.85;0.90;;;19.50;81.20;;;;;;4824326;29;20636;-82
2022/05/27 13:18:18;;;;;;;6.22;1.40;;;19.60;83.00;;;;;;4824999;29;20580;-82
2022/05/27 13:21:03;;;;;;;6.75;1.55;;;19.50;83.80;;;;;;4806634;29;20269;-82
2022/05/27 13:23:31;;;;;;;6.63;1.45;;;19.00;86.50;;;;;;4807265;29;20670;-82
2022/05/27 13:26:29;;;;;;;4.00;1.35;;;18.60;87.20;;;;;;4807284;29;20618;-80
2022/05/27 13:28:58;;;;;;;4.30;1.55;;;18.20;87.50;;;;;;4825330;29;20189;-79
2022/05/27 13:31:31;;;;;;;6.70;1.42;;;17.90;87.70;;;;;;4826112;29;20218;-81
2022/05/27 13:34:06;;;;;;;9.35;1.38;;;17.80;87.50;;;;;;4824820;29;20206;-82
2022/05/27 13:36:40;;;;;;;5.43;1.70;;;17.80;89.80;;;;;;4825679;29;20182;-80
2022/05/27 13:39:10;;;;;;;11.82;1.77;;;18.20;90.70;;;;;;4826304;29;20170;-81
2022/05/27 13:41:41;;;;;;;6.43;1.83;;;18.30;90.70;;;;;;4841238;29;20189;-80
2022/05/27 13:44:11;;;;;;;5.85;1.00;;;18.10;91.00;;;;;;4842898;29;20272;-81
2022/05/27 13:46:41;;;;;;;5.72;1.25;;;17.70;91.60;;;;;;4842950;29;20193;-81
2022/05/27 13:49:07;;;;;;;3.22;1.10;;;17.40;92.40;;;;;;4828836;29;20186;-81
2022/05/27 13:51:40;;;;;;;8.57;1.27;;;17.30;93.30;;;;;;4826044;29;20228;-81
2022/05/27 13:54:14;;;;;;;5.22;1.05;;;17.70;93.10;;;;;;4824805;29;20614;-80